Laredo, TX (78042)

5:59 AM CST on February 07, 2016 (GMT -0600)
Vista Hermosa Subdivision | | Change Station
CLOSE
Current Station
Personal Weather Station
Location: Laredo, TX
Elevation: 489 ft
Nearby Weather Stations

Elev 489 ft 27.55 °N, 99.48 °W | Updated 20 seconds ago

Mostly Cloudy
Mostly Cloudy
39.0 °F
Feels Like 39 °F
N
0.0
Wind Variable Wind from North
Gusts 0.0 mph

Today
High -- | Low -- °F
--% Chance of Precip.
Yesterday
High -- | Low -- °F
Precip. -- in
Pressure 30.33 in
Visibility 10.0 miles
Clouds Clear
Windchill 39 °F
Dew Point 22 °F
Humidity 50%
Rainfall 0.00 in
Snow Depth Not available.
7:21 AM 6:23 PM
Waning Crescent, 2% visible
METAR KLRD 071156Z AUTO 00000KT 10SM CLR 05/M07 A3030 RMK AO2 SLP270 T00501067 10083 20033 56008 TSNO
Pressure 30.33 in
Visibility 10.0 miles
Clouds Clear
Windchill 39 °F
Dew Point 22 °F
Humidity 50%
Rainfall 0.00 in
Snow Depth Not available.
7:21 AM 6:23 PM
Waning Crescent, 2% visible
METAR KLRD 071156Z AUTO 00000KT 10SM CLR 05/M07 A3030 RMK AO2 SLP270 T00501067 10083 20033 56008 TSNO

10-Day Weather Forecast

Almanac

Astronomy

Feb. 07, 2016 Rise Set
Actual Time
Civil Twilight
Nautical Twilight
Astronomical Twilight
Moon
Length of Visible Light
Length of Day
Tomorrow will be .
, % of the Moon is Illuminated

Today's Extremes

State Highs State Lows

Community

WunderPhotos

Upload Photos

1,891,182 photos uploaded!

WunderBlog® & News

Nearby

Air Quality

  Air Quality AQ Index Pollutant
Not available.

Snow Depth

Station Depth Elevation

Earthquake Activity

City Distance Mag. Time & Date
Minimum magnitude displayed is 2.5.

Coastal Water Temperatures

Place Temperature

Stations

Nearby Weather Stations

Station Location Temp. Windchill Dew Point Humidity Wind Precip. Elev Updated Type
                   

Watches & Warnings

There are currently no watches in effect.